sensor_id;sensor_type;location;lat;lon;timestamp;P1;durP1;ratioP1;P2;durP2;ratioP2
66478;SDS011;53294;47.912;13.526;2023-11-19T00:01:34;0.93;;;0.43;;
66478;SDS011;53294;47.912;13.526;2023-11-19T00:04:01;2.00;;;0.40;;
66478;SDS011;53294;47.912;13.526;2023-11-19T00:06:31;2.17;;;0.73;;
66478;SDS011;53294;47.912;13.526;2023-11-19T00:08:57;0.30;;;0.30;;
66478;SDS011;53294;47.912;13.526;2023-11-19T00:11:24;0.50;;;0.20;;
66478;SDS011;53294;47.912;13.526;2023-11-19T00:13:51;1.15;;;0.40;;
66478;SDS011;53294;47.912;13.526;2023-11-19T00:16:17;2.08;;;0.40;;
66478;SDS011;53294;47.912;13.526;2023-11-19T00:18:44;0.80;;;0.57;;
66478;SDS011;53294;47.912;13.526;2023-11-19T00:21:11;1.33;;;0.65;;
66478;SDS011;53294;47.912;13.526;2023-11-19T00:23:37;2.45;;;0.52;;
66478;SDS011;53294;47.912;13.526;2023-11-19T00:26:04;1.45;;;0.50;;
66478;SDS011;53294;47.912;13.526;2023-11-19T00:28:32;0.40;;;0.40;;
66478;SDS011;53294;47.912;13.526;2023-11-19T00:31:00;0.55;;;0.40;;
66478;SDS011;53294;47.912;13.526;2023-11-19T00:33:27;0.40;;;0.40;;
66478;SDS011;53294;47.912;13.526;2023-11-19T00:35:54;0.63;;;0.38;;
66478;SDS011;53294;47.912;13.526;2023-11-19T00:38:22;0.77;;;0.30;;
66478;SDS011;53294;47.912;13.526;2023-11-19T00:40:49;1.77;;;0.73;;
66478;SDS011;53294;47.912;13.526;2023-11-19T00:43:15;1.40;;;0.77;;
66478;SDS011;53294;47.912;13.526;2023-11-19T00:45:42;1.42;;;0.85;;
66478;SDS011;53294;47.912;13.526;2023-11-19T00:48:09;0.30;;;0.22;;
66478;SDS011;53294;47.912;13.526;2023-11-19T00:50:36;1.45;;;0.52;;
66478;SDS011;53294;47.912;13.526;2023-11-19T00:53:04;0.95;;;0.50;;
66478;SDS011;53294;47.912;13.526;2023-11-19T00:55:31;0.93;;;0.40;;
66478;SDS011;53294;47.912;13.526;2023-11-19T00:57:58;1.35;;;0.50;;
66478;SDS011;53294;47.912;13.526;2023-11-19T01:00:25;1.08;;;0.30;;
66478;SDS011;53294;47.912;13.526;2023-11-19T01:02:53;0.90;;;0.32;;
66478;SDS011;53294;47.912;13.526;2023-11-19T01:05:20;0.90;;;0.20;;
66478;SDS011;53294;47.912;13.526;2023-11-19T01:07:49;0.93;;;0.28;;
66478;SDS011;53294;47.912;13.526;2023-11-19T01:10:16;0.47;;;0.25;;
66478;SDS011;53294;47.912;13.526;2023-11-19T01:12:45;0.10;;;0.10;;
66478;SDS011;53294;47.912;13.526;2023-11-19T01:15:12;0.35;;;0.10;;
66478;SDS011;53294;47.912;13.526;2023-11-19T01:20:18;0.70;;;0.20;;
66478;SDS011;53294;47.912;13.526;2023-11-19T01:22:47;0.75;;;0.20;;
66478;SDS011;53294;47.912;13.526;2023-11-19T01:25:15;0.55;;;0.40;;
66478;SDS011;53294;47.912;13.526;2023-11-19T01:27:42;1.00;;;0.50;;
66478;SDS011;53294;47.912;13.526;2023-11-19T01:30:09;0.88;;;0.40;;
66478;SDS011;53294;47.912;13.526;2023-11-19T01:32:39;0.80;;;0.35;;
66478;SDS011;53294;47.912;13.526;2023-11-19T01:35:07;1.75;;;0.55;;
66478;SDS011;53294;47.912;13.526;2023-11-19T01:37:37;1.08;;;0.52;;
66478;SDS011;53294;47.912;13.526;2023-11-19T01:40:04;0.35;;;0.35;;
66478;SDS011;53294;47.912;13.526;2023-11-19T01:42:36;0.47;;;0.32;;
66478;SDS011;53294;47.912;13.526;2023-11-19T01:45:06;2.13;;;0.40;;
66478;SDS011;53294;47.912;13.526;2023-11-19T01:47:35;1.10;;;0.43;;
66478;SDS011;53294;47.912;13.526;2023-11-19T01:50:03;0.65;;;0.30;;
66478;SDS011;53294;47.912;13.526;2023-11-19T01:52:34;0.28;;;0.28;;
66478;SDS011;53294;47.912;13.526;2023-11-19T01:55:05;1.50;;;0.45;;
66478;SDS011;53294;47.912;13.526;2023-11-19T01:57:35;1.25;;;0.90;;
66478;SDS011;53294;47.912;13.526;2023-11-19T02:00:04;0.75;;;0.43;;
66478;SDS011;53294;47.912;13.526;2023-11-19T02:02:32;0.45;;;0.25;;
66478;SDS011;53294;47.912;13.526;2023-11-19T02:05:00;0.57;;;0.30;;
66478;SDS011;53294;47.912;13.526;2023-11-19T02:07:26;0.13;;;0.03;;
66478;SDS011;53294;47.912;13.526;2023-11-19T02:09:53;0.32;;;0.25;;
66478;SDS011;53294;47.912;13.526;2023-11-19T02:12:20;0.17;;;0.13;;
66478;SDS011;53294;47.912;13.526;2023-11-19T02:14:47;1.48;;;0.65;;
66478;SDS011;53294;47.912;13.526;2023-11-19T02:17:29;0.38;;;0.20;;
66478;SDS011;53294;47.912;13.526;2023-11-19T02:20:00;0.20;;;0.20;;
66478;SDS011;53294;47.912;13.526;2023-11-19T02:22:27;0.25;;;0.17;;
66478;SDS011;53294;47.912;13.526;2023-11-19T02:24:55;1.92;;;0.70;;
66478;SDS011;53294;47.912;13.526;2023-11-19T02:27:31;1.25;;;0.68;;
66478;SDS011;53294;47.912;13.526;2023-11-19T02:30:18;0.22;;;0.22;;
66478;SDS011;53294;47.912;13.526;2023-11-19T02:32:44;1.42;;;0.40;;
66478;SDS011;53294;47.912;13.526;2023-11-19T02:35:12;1.15;;;0.50;;
66478;SDS011;53294;47.912;13.526;2023-11-19T02:37:39;0.52;;;0.15;;
66478;SDS011;53294;47.912;13.526;2023-11-19T02:40:06;1.35;;;0.57;;
66478;SDS011;53294;47.912;13.526;2023-11-19T02:42:35;0.70;;;0.30;;
66478;SDS011;53294;47.912;13.526;2023-11-19T02:45:02;1.17;;;0.60;;
66478;SDS011;53294;47.912;13.526;2023-11-19T02:47:32;2.90;;;0.88;;
66478;SDS011;53294;47.912;13.526;2023-11-19T02:50:00;0.68;;;0.43;;
66478;SDS011;53294;47.912;13.526;2023-11-19T02:52:28;0.80;;;0.60;;
66478;SDS011;53294;47.912;13.526;2023-11-19T02:54:54;2.35;;;1.02;;
66478;SDS011;53294;47.912;13.526;2023-11-19T03:04:44;1.45;;;0.50;;
66478;SDS011;53294;47.912;13.526;2023-11-19T03:07:12;1.05;;;0.50;;
66478;SDS011;53294;47.912;13.526;2023-11-19T03:09:40;1.30;;;1.02;;
66478;SDS011;53294;47.912;13.526;2023-11-19T03:12:07;0.80;;;0.40;;
66478;SDS011;53294;47.912;13.526;2023-11-19T03:14:34;1.10;;;0.55;;
66478;SDS011;53294;47.912;13.526;2023-11-19T03:17:01;0.73;;;0.30;;
66478;SDS011;53294;47.912;13.526;2023-11-19T03:19:30;0.55;;;0.43;;
66478;SDS011;53294;47.912;13.526;2023-11-19T03:21:56;0.88;;;0.52;;
66478;SDS011;53294;47.912;13.526;2023-11-19T03:24:23;2.60;;;0.40;;
66478;SDS011;53294;47.912;13.526;2023-11-19T03:26:51;0.30;;;0.17;;
66478;SDS011;53294;47.912;13.526;2023-11-19T03:29:18;1.02;;;0.40;;
66478;SDS011;53294;47.912;13.526;2023-11-19T03:31:44;0.50;;;0.30;;
66478;SDS011;53294;47.912;13.526;2023-11-19T03:34:11;1.08;;;0.47;;
66478;SDS011;53294;47.912;13.526;2023-11-19T03:36:39;0.43;;;0.28;;
66478;SDS011;53294;47.912;13.526;2023-11-19T03:39:06;2.20;;;0.43;;
66478;SDS011;53294;47.912;13.526;2023-11-19T03:41:33;0.90;;;0.20;;
66478;SDS011;53294;47.912;13.526;2023-11-19T03:44:02;2.53;;;0.47;;
66478;SDS011;53294;47.912;13.526;2023-11-19T03:46:29;0.73;;;0.32;;
66478;SDS011;53294;47.912;13.526;2023-11-19T03:48:56;0.40;;;0.20;;
66478;SDS011;53294;47.912;13.526;2023-11-19T03:51:23;0.95;;;0.40;;
66478;SDS011;53294;47.912;13.526;2023-11-19T03:53:50;0.68;;;0.40;;
66478;SDS011;53294;47.912;13.526;2023-11-19T03:56:16;0.55;;;0.30;;
66478;SDS011;53294;47.912;13.526;2023-11-19T03:58:43;0.45;;;0.20;;
66478;SDS011;53294;47.912;13.526;2023-11-19T04:01:13;0.15;;;0.10;;
66478;SDS011;53294;47.912;13.526;2023-11-19T04:03:40;1.02;;;0.30;;
66478;SDS011;53294;47.912;13.526;2023-11-19T04:06:10;0.40;;;0.30;;
66478;SDS011;53294;47.912;13.526;2023-11-19T04:08:36;1.40;;;0.57;;
66478;SDS011;53294;47.912;13.526;2023-11-19T04:11:03;0.40;;;0.30;;
66478;SDS011;53294;47.912;13.526;2023-11-19T04:13:30;0.85;;;0.30;;
66478;SDS011;53294;47.912;13.526;2023-11-19T04:15:57;0.22;;;0.10;;
66478;SDS011;53294;47.912;13.526;2023-11-19T04:18:24;0.32;;;0.20;;
66478;SDS011;53294;47.912;13.526;2023-11-19T04:20:50;0.43;;;0.30;;
66478;SDS011;53294;47.912;13.526;2023-11-19T04:23:17;0.15;;;0.00;;
66478;SDS011;53294;47.912;13.526;2023-11-19T04:25:44;0.38;;;0.20;;
66478;SDS011;53294;47.912;13.526;2023-11-19T04:28:10;0.30;;;0.20;;
66478;SDS011;53294;47.912;13.526;2023-11-19T04:30:37;1.23;;;0.50;;
66478;SDS011;53294;47.912;13.526;2023-11-19T04:33:04;0.10;;;0.10;;
66478;SDS011;53294;47.912;13.526;2023-11-19T04:35:32;0.70;;;0.30;;
66478;SDS011;53294;47.912;13.526;2023-11-19T04:37:58;0.10;;;0.03;;
66478;SDS011;53294;47.912;13.526;2023-11-19T04:40:25;0.57;;;0.10;;
66478;SDS011;53294;47.912;13.526;2023-11-19T04:42:52;1.08;;;0.25;;
66478;SDS011;53294;47.912;13.526;2023-11-19T04:45:19;0.40;;;0.20;;
66478;SDS011;53294;47.912;13.526;2023-11-19T04:47:46;0.32;;;0.10;;
66478;SDS011;53294;47.912;13.526;2023-11-19T04:50:13;0.20;;;0.10;;
66478;SDS011;53294;47.912;13.526;2023-11-19T04:52:39;0.10;;;0.00;;
66478;SDS011;53294;47.912;13.526;2023-11-19T04:55:06;0.40;;;0.15;;
66478;SDS011;53294;47.912;13.526;2023-11-19T04:57:33;0.47;;;0.40;;
66478;SDS011;53294;47.912;13.526;2023-11-19T05:00:00;0.00;;;0.00;;
66478;SDS011;53294;47.912;13.526;2023-11-19T05:02:27;0.43;;;0.00;;
66478;SDS011;53294;47.912;13.526;2023-11-19T05:04:53;0.50;;;0.17;;
66478;SDS011;53294;47.912;13.526;2023-11-19T05:07:21;0.00;;;0.00;;
66478;SDS011;53294;47.912;13.526;2023-11-19T05:09:48;1.45;;;0.00;;
66478;SDS011;53294;47.912;13.526;2023-11-19T05:12:14;0.45;;;0.28;;
66478;SDS011;53294;47.912;13.526;2023-11-19T05:14:41;0.10;;;0.10;;
66478;SDS011;53294;47.912;13.526;2023-11-19T05:17:16;0.10;;;0.00;;
66478;SDS011;53294;47.912;13.526;2023-11-19T05:19:44;0.50;;;0.20;;
66478;SDS011;53294;47.912;13.526;2023-11-19T05:22:11;0.00;;;0.00;;
66478;SDS011;53294;47.912;13.526;2023-11-19T05:24:39;0.10;;;0.00;;
66478;SDS011;53294;47.912;13.526;2023-11-19T05:27:07;0.00;;;0.00;;
66478;SDS011;53294;47.912;13.526;2023-11-19T05:29:34;0.00;;;0.00;;
66478;SDS011;53294;47.912;13.526;2023-11-19T05:32:01;0.22;;;0.22;;
66478;SDS011;53294;47.912;13.526;2023-11-19T05:34:27;0.73;;;0.10;;
66478;SDS011;53294;47.912;13.526;2023-11-19T05:36:55;0.00;;;0.00;;
66478;SDS011;53294;47.912;13.526;2023-11-19T05:39:21;0.00;;;0.00;;
66478;SDS011;53294;47.912;13.526;2023-11-19T05:41:48;0.40;;;0.25;;
66478;SDS011;53294;47.912;13.526;2023-11-19T05:44:15;0.60;;;0.30;;
66478;SDS011;53294;47.912;13.526;2023-11-19T05:46:42;0.35;;;0.10;;
66478;SDS011;53294;47.912;13.526;2023-11-19T05:49:10;0.35;;;0.10;;
66478;SDS011;53294;47.912;13.526;2023-11-19T05:51:37;0.77;;;0.17;;
66478;SDS011;53294;47.912;13.526;2023-11-19T05:54:08;0.20;;;0.20;;
66478;SDS011;53294;47.912;13.526;2023-11-19T05:56:36;0.10;;;0.10;;
66478;SDS011;53294;47.912;13.526;2023-11-19T05:59:03;0.35;;;0.10;;
66478;SDS011;53294;47.912;13.526;2023-11-19T06:01:34;0.40;;;0.15;;
66478;SDS011;53294;47.912;13.526;2023-11-19T06:04:01;0.47;;;0.25;;
66478;SDS011;53294;47.912;13.526;2023-11-19T06:06:28;1.10;;;0.30;;
66478;SDS011;53294;47.912;13.526;2023-11-19T06:08:55;0.03;;;0.03;;
66478;SDS011;53294;47.912;13.526;2023-11-19T06:11:22;1.00;;;0.40;;
66478;SDS011;53294;47.912;13.526;2023-11-19T06:13:49;0.60;;;0.40;;
66478;SDS011;53294;47.912;13.526;2023-11-19T06:16:17;0.30;;;0.20;;
66478;SDS011;53294;47.912;13.526;2023-11-19T06:18:44;0.25;;;0.10;;
66478;SDS011;53294;47.912;13.526;2023-11-19T06:21:12;0.95;;;0.30;;
66478;SDS011;53294;47.912;13.526;2023-11-19T06:26:05;0.40;;;0.35;;
66478;SDS011;53294;47.912;13.526;2023-11-19T06:28:32;0.43;;;0.38;;
66478;SDS011;53294;47.912;13.526;2023-11-19T06:30:59;1.30;;;0.50;;
66478;SDS011;53294;47.912;13.526;2023-11-19T06:33:25;0.73;;;0.32;;
66478;SDS011;53294;47.912;13.526;2023-11-19T06:35:53;0.73;;;0.22;;
66478;SDS011;53294;47.912;13.526;2023-11-19T06:43:18;0.38;;;0.20;;
66478;SDS011;53294;47.912;13.526;2023-11-19T06:45:45;0.75;;;0.60;;
66478;SDS011;53294;47.912;13.526;2023-11-19T06:48:12;0.40;;;0.10;;
66478;SDS011;53294;47.912;13.526;2023-11-19T06:50:38;0.68;;;0.38;;
66478;SDS011;53294;47.912;13.526;2023-11-19T06:53:05;1.05;;;0.30;;
66478;SDS011;53294;47.912;13.526;2023-11-19T06:55:36;0.25;;;0.25;;
66478;SDS011;53294;47.912;13.526;2023-11-19T06:58:03;0.45;;;0.25;;
66478;SDS011;53294;47.912;13.526;2023-11-19T07:00:30;0.95;;;0.30;;
66478;SDS011;53294;47.912;13.526;2023-11-19T07:02:59;0.75;;;0.30;;
66478;SDS011;53294;47.912;13.526;2023-11-19T07:05:26;0.75;;;0.20;;
66478;SDS011;53294;47.912;13.526;2023-11-19T07:07:53;0.43;;;0.30;;
66478;SDS011;53294;47.912;13.526;2023-11-19T07:10:21;0.77;;;0.28;;
66478;SDS011;53294;47.912;13.526;2023-11-19T07:12:47;2.75;;;0.60;;
66478;SDS011;53294;47.912;13.526;2023-11-19T07:15:16;1.20;;;0.55;;
66478;SDS011;53294;47.912;13.526;2023-11-19T07:17:44;2.13;;;0.98;;
66478;SDS011;53294;47.912;13.526;2023-11-19T07:20:11;4.72;;;1.20;;
66478;SDS011;53294;47.912;13.526;2023-11-19T07:22:43;1.80;;;1.20;;
66478;SDS011;53294;47.912;13.526;2023-11-19T07:25:14;1.85;;;0.30;;
66478;SDS011;53294;47.912;13.526;2023-11-19T07:27:41;0.45;;;0.20;;
66478;SDS011;53294;47.912;13.526;2023-11-19T07:30:09;2.47;;;0.82;;
66478;SDS011;53294;47.912;13.526;2023-11-19T07:32:36;1.50;;;0.70;;
66478;SDS011;53294;47.912;13.526;2023-11-19T07:35:05;2.25;;;0.60;;
66478;SDS011;53294;47.912;13.526;2023-11-19T07:37:33;1.38;;;0.55;;
66478;SDS011;53294;47.912;13.526;2023-11-19T07:39:59;1.10;;;0.57;;
66478;SDS011;53294;47.912;13.526;2023-11-19T07:42:26;0.25;;;0.20;;
66478;SDS011;53294;47.912;13.526;2023-11-19T07:44:53;0.43;;;0.20;;
66478;SDS011;53294;47.912;13.526;2023-11-19T07:47:21;0.70;;;0.30;;
66478;SDS011;53294;47.912;13.526;2023-11-19T07:49:50;0.85;;;0.50;;
66478;SDS011;53294;47.912;13.526;2023-11-19T07:52:17;0.30;;;0.20;;
66478;SDS011;53294;47.912;13.526;2023-11-19T07:54:46;0.28;;;0.10;;
66478;SDS011;53294;47.912;13.526;2023-11-19T07:57:13;1.35;;;0.20;;
66478;SDS011;53294;47.912;13.526;2023-11-19T07:59:39;0.60;;;0.30;;
66478;SDS011;53294;47.912;13.526;2023-11-19T08:02:06;0.52;;;0.20;;
66478;SDS011;53294;47.912;13.526;2023-11-19T08:04:33;0.60;;;0.40;;
66478;SDS011;53294;47.912;13.526;2023-11-19T08:07:00;0.10;;;0.10;;
66478;SDS011;53294;47.912;13.526;2023-11-19T08:09:27;0.88;;;0.40;;
66478;SDS011;53294;47.912;13.526;2023-11-19T08:11:54;0.20;;;0.13;;
66478;SDS011;53294;47.912;13.526;2023-11-19T08:14:22;0.13;;;0.13;;
66478;SDS011;53294;47.912;13.526;2023-11-19T08:16:50;2.45;;;0.25;;
66478;SDS011;53294;47.912;13.526;2023-11-19T08:19:17;0.30;;;0.20;;
66478;SDS011;53294;47.912;13.526;2023-11-19T08:21:44;0.52;;;0.30;;
66478;SDS011;53294;47.912;13.526;2023-11-19T08:24:11;0.32;;;0.17;;
66478;SDS011;53294;47.912;13.526;2023-11-19T08:26:37;0.85;;;0.13;;
66478;SDS011;53294;47.912;13.526;2023-11-19T08:29:04;0.22;;;0.10;;
66478;SDS011;53294;47.912;13.526;2023-11-19T08:31:31;0.75;;;0.10;;
66478;SDS011;53294;47.912;13.526;2023-11-19T08:33:58;0.00;;;0.00;;
66478;SDS011;53294;47.912;13.526;2023-11-19T08:36:25;0.75;;;0.25;;
66478;SDS011;53294;47.912;13.526;2023-11-19T08:38:51;0.75;;;0.43;;
66478;SDS011;53294;47.912;13.526;2023-11-19T08:41:18;0.22;;;0.10;;
66478;SDS011;53294;47.912;13.526;2023-11-19T08:43:45;1.27;;;0.47;;
66478;SDS011;53294;47.912;13.526;2023-11-19T08:46:12;1.27;;;0.43;;
66478;SDS011;53294;47.912;13.526;2023-11-19T08:48:40;0.05;;;0.03;;
66478;SDS011;53294;47.912;13.526;2023-11-19T08:51:07;0.10;;;0.10;;
66478;SDS011;53294;47.912;13.526;2023-11-19T08:53:33;0.77;;;0.30;;
66478;SDS011;53294;47.912;13.526;2023-11-19T08:56:00;0.68;;;0.20;;
66478;SDS011;53294;47.912;13.526;2023-11-19T08:58:29;0.00;;;0.00;;
66478;SDS011;53294;47.912;13.526;2023-11-19T09:00:57;0.63;;;0.28;;
66478;SDS011;53294;47.912;13.526;2023-11-19T09:05:55;0.00;;;0.00;;
66478;SDS011;53294;47.912;13.526;2023-11-19T09:08:22;0.00;;;0.00;;
66478;SDS011;53294;47.912;13.526;2023-11-19T09:10:49;0.00;;;0.00;;
66478;SDS011;53294;47.912;13.526;2023-11-19T09:13:15;1.05;;;0.15;;
66478;SDS011;53294;47.912;13.526;2023-11-19T09:15:42;0.98;;;0.30;;
66478;SDS011;53294;47.912;13.526;2023-11-19T09:18:09;0.25;;;0.20;;
66478;SDS011;53294;47.912;13.526;2023-11-19T09:20:35;1.65;;;0.77;;
66478;SDS011;53294;47.912;13.526;2023-11-19T09:23:05;1.60;;;0.60;;
66478;SDS011;53294;47.912;13.526;2023-11-19T09:25:32;1.92;;;0.55;;
66478;SDS011;53294;47.912;13.526;2023-11-19T09:28:02;0.00;;;0.00;;
66478;SDS011;53294;47.912;13.526;2023-11-19T09:30:29;0.28;;;0.15;;
66478;SDS011;53294;47.912;13.526;2023-11-19T09:32:56;0.00;;;0.00;;
66478;SDS011;53294;47.912;13.526;2023-11-19T09:35:22;0.00;;;0.00;;
66478;SDS011;53294;47.912;13.526;2023-11-19T09:37:49;0.10;;;0.10;;
66478;SDS011;53294;47.912;13.526;2023-11-19T09:40:16;0.10;;;0.08;;
66478;SDS011;53294;47.912;13.526;2023-11-19T09:42:44;0.20;;;0.10;;
66478;SDS011;53294;47.912;13.526;2023-11-19T09:45:15;0.45;;;0.20;;
66478;SDS011;53294;47.912;13.526;2023-11-19T09:47:43;0.90;;;0.22;;
66478;SDS011;53294;47.912;13.526;2023-11-19T09:50:14;0.00;;;0.00;;
66478;SDS011;53294;47.912;13.526;2023-11-19T09:52:44;0.10;;;0.10;;
66478;SDS011;53294;47.912;13.526;2023-11-19T09:55:11;0.00;;;0.00;;
66478;SDS011;53294;47.912;13.526;2023-11-19T09:57:38;0.00;;;0.00;;
66478;SDS011;53294;47.912;13.526;2023-11-19T10:00:07;0.20;;;0.13;;
66478;SDS011;53294;47.912;13.526;2023-11-19T10:02:34;0.30;;;0.10;;
66478;SDS011;53294;47.912;13.526;2023-11-19T10:05:04;0.80;;;0.30;;
66478;SDS011;53294;47.912;13.526;2023-11-19T10:07:33;1.35;;;0.45;;
66478;SDS011;53294;47.912;13.526;2023-11-19T10:10:04;0.20;;;0.10;;
66478;SDS011;53294;47.912;13.526;2023-11-19T10:12:31;0.17;;;0.00;;
66478;SDS011;53294;47.912;13.526;2023-11-19T10:14:58;0.00;;;0.00;;
66478;SDS011;53294;47.912;13.526;2023-11-19T10:17:28;0.00;;;0.00;;
66478;SDS011;53294;47.912;13.526;2023-11-19T10:19:59;0.20;;;0.10;;
66478;SDS011;53294;47.912;13.526;2023-11-19T10:22:26;0.10;;;0.08;;
66478;SDS011;53294;47.912;13.526;2023-11-19T10:24:53;0.57;;;0.00;;
66478;SDS011;53294;47.912;13.526;2023-11-19T10:27:23;0.82;;;0.15;;
66478;SDS011;53294;47.912;13.526;2023-11-19T10:29:52;0.05;;;0.03;;
66478;SDS011;53294;47.912;13.526;2023-11-19T10:32:19;0.10;;;0.10;;
66478;SDS011;53294;47.912;13.526;2023-11-19T10:34:52;0.28;;;0.08;;
66478;SDS011;53294;47.912;13.526;2023-11-19T10:37:31;0.03;;;0.00;;
66478;SDS011;53294;47.912;13.526;2023-11-19T10:39:59;0.00;;;0.00;;
66478;SDS011;53294;47.912;13.526;2023-11-19T10:42:26;0.00;;;0.00;;
66478;SDS011;53294;47.912;13.526;2023-11-19T10:44:52;0.00;;;0.00;;
66478;SDS011;53294;47.912;13.526;2023-11-19T10:47:19;0.10;;;0.10;;
66478;SDS011;53294;47.912;13.526;2023-11-19T10:50:04;0.17;;;0.10;;
66478;SDS011;53294;47.912;13.526;2023-11-19T10:52:32;0.20;;;0.08;;
66478;SDS011;53294;47.912;13.526;2023-11-19T10:55:00;0.25;;;0.10;;
66478;SDS011;53294;47.912;13.526;2023-11-19T10:57:29;0.10;;;0.10;;
66478;SDS011;53294;47.912;13.526;2023-11-19T11:00:00;0.30;;;0.15;;
66478;SDS011;53294;47.912;13.526;2023-11-19T11:02:29;0.20;;;0.10;;
66478;SDS011;53294;47.912;13.526;2023-11-19T11:05:02;0.10;;;0.10;;
66478;SDS011;53294;47.912;13.526;2023-11-19T11:07:29;0.00;;;0.00;;
66478;SDS011;53294;47.912;13.526;2023-11-19T11:10:06;0.05;;;0.05;;
66478;SDS011;53294;47.912;13.526;2023-11-19T11:12:36;0.00;;;0.00;;
66478;SDS011;53294;47.912;13.526;2023-11-19T11:15:08;0.52;;;0.20;;
66478;SDS011;53294;47.912;13.526;2023-11-19T11:17:39;0.00;;;0.00;;
66478;SDS011;53294;47.912;13.526;2023-11-19T11:20:07;0.00;;;0.00;;
66478;SDS011;53294;47.912;13.526;2023-11-19T11:22:40;0.20;;;0.20;;
66478;SDS011;53294;47.912;13.526;2023-11-19T11:28:05;1.52;;;0.35;;
66478;SDS011;53294;47.912;13.526;2023-11-19T11:36:09;0.00;;;0.00;;
66478;SDS011;53294;47.912;13.526;2023-11-19T11:38:44;0.20;;;0.00;;
66478;SDS011;53294;47.912;13.526;2023-11-19T11:41:21;0.45;;;0.13;;
66478;SDS011;53294;47.912;13.526;2023-11-19T11:43:55;0.50;;;0.10;;
66478;SDS011;53294;47.912;13.526;2023-11-19T11:46:56;0.30;;;0.10;;
66478;SDS011;53294;47.912;13.526;2023-11-19T11:49:25;0.35;;;0.10;;
66478;SDS011;53294;47.912;13.526;2023-11-19T11:51:58;0.10;;;0.10;;
66478;SDS011;53294;47.912;13.526;2023-11-19T11:54:26;0.30;;;0.10;;
66478;SDS011;53294;47.912;13.526;2023-11-19T11:57:28;0.00;;;0.00;;
66478;SDS011;53294;47.912;13.526;2023-11-19T11:59:48;0.03;;;0.00;;
66478;SDS011;53294;47.912;13.526;2023-11-19T12:02:20;0.10;;;0.00;;
66478;SDS011;53294;47.912;13.526;2023-11-19T12:04:48;0.00;;;0.00;;
66478;SDS011;53294;47.912;13.526;2023-11-19T12:07:19;0.28;;;0.10;;
66478;SDS011;53294;47.912;13.526;2023-11-19T12:09:51;0.20;;;0.13;;
66478;SDS011;53294;47.912;13.526;2023-11-19T12:12:26;0.30;;;0.10;;
66478;SDS011;53294;47.912;13.526;2023-11-19T12:15:09;0.10;;;0.10;;
66478;SDS011;53294;47.912;13.526;2023-11-19T12:17:37;0.43;;;0.20;;
66478;SDS011;53294;47.912;13.526;2023-11-19T12:20:11;0.00;;;0.00;;
66478;SDS011;53294;47.912;13.526;2023-11-19T12:22:38;0.40;;;0.13;;
66478;SDS011;53294;47.912;13.526;2023-11-19T12:25:10;0.43;;;0.10;;
66478;SDS011;53294;47.912;13.526;2023-11-19T12:27:41;0.38;;;0.17;;
66478;SDS011;53294;47.912;13.526;2023-11-19T12:30:09;0.60;;;0.20;;
66478;SDS011;53294;47.912;13.526;2023-11-19T12:32:42;0.20;;;0.10;;
66478;SDS011;53294;47.912;13.526;2023-11-19T12:35:12;0.08;;;0.00;;
66478;SDS011;53294;47.912;13.526;2023-11-19T12:37:43;1.55;;;0.15;;
66478;SDS011;53294;47.912;13.526;2023-11-19T12:42:45;0.05;;;0.00;;
66478;SDS011;53294;47.912;13.526;2023-11-19T12:45:13;0.40;;;0.28;;
66478;SDS011;53294;47.912;13.526;2023-11-19T12:47:40;0.50;;;0.10;;
66478;SDS011;53294;47.912;13.526;2023-11-19T12:50:07;0.65;;;0.17;;
66478;SDS011;53294;47.912;13.526;2023-11-19T12:52:35;0.20;;;0.10;;
66478;SDS011;53294;47.912;13.526;2023-11-19T12:55:04;0.00;;;0.00;;
66478;SDS011;53294;47.912;13.526;2023-11-19T12:57:41;0.30;;;0.10;;
66478;SDS011;53294;47.912;13.526;2023-11-19T13:00:18;0.60;;;0.20;;
66478;SDS011;53294;47.912;13.526;2023-11-19T13:05:26;0.57;;;0.15;;
66478;SDS011;53294;47.912;13.526;2023-11-19T13:08:03;0.30;;;0.10;;
66478;SDS011;53294;47.912;13.526;2023-11-19T13:10:50;0.20;;;0.08;;
66478;SDS011;53294;47.912;13.526;2023-11-19T13:13:20;0.15;;;0.00;;
66478;SDS011;53294;47.912;13.526;2023-11-19T13:18:15;0.25;;;0.10;;
66478;SDS011;53294;47.912;13.526;2023-11-19T13:20:42;0.03;;;0.03;;
66478;SDS011;53294;47.912;13.526;2023-11-19T13:23:09;0.10;;;0.10;;
66478;SDS011;53294;47.912;13.526;2023-11-19T13:25:43;1.98;;;0.10;;
66478;SDS011;53294;47.912;13.526;2023-11-19T13:28:11;0.00;;;0.00;;
66478;SDS011;53294;47.912;13.526;2023-11-19T13:30:38;0.15;;;0.03;;
66478;SDS011;53294;47.912;13.526;2023-11-19T13:33:05;0.22;;;0.10;;
66478;SDS011;53294;47.912;13.526;2023-11-19T13:35:31;0.15;;;0.08;;
66478;SDS011;53294;47.912;13.526;2023-11-19T13:37:58;0.10;;;0.00;;
66478;SDS011;53294;47.912;13.526;2023-11-19T13:40:25;0.73;;;0.10;;
66478;SDS011;53294;47.912;13.526;2023-11-19T13:42:51;0.10;;;0.10;;
66478;SDS011;53294;47.912;13.526;2023-11-19T13:45:18;0.25;;;0.10;;
66478;SDS011;53294;47.912;13.526;2023-11-19T13:47:47;0.45;;;0.20;;
66478;SDS011;53294;47.912;13.526;2023-11-19T13:50:14;0.30;;;0.10;;
66478;SDS011;53294;47.912;13.526;2023-11-19T13:52:45;0.10;;;0.10;;
66478;SDS011;53294;47.912;13.526;2023-11-19T13:55:13;0.30;;;0.10;;
66478;SDS011;53294;47.912;13.526;2023-11-19T13:57:41;0.05;;;0.00;;
66478;SDS011;53294;47.912;13.526;2023-11-19T14:00:09;0.25;;;0.13;;
66478;SDS011;53294;47.912;13.526;2023-11-19T14:02:39;0.10;;;0.00;;
66478;SDS011;53294;47.912;13.526;2023-11-19T14:05:07;0.57;;;0.10;;
66478;SDS011;53294;47.912;13.526;2023-11-19T14:07:35;1.63;;;0.20;;
66478;SDS011;53294;47.912;13.526;2023-11-19T14:10:01;0.28;;;0.10;;
66478;SDS011;53294;47.912;13.526;2023-11-19T14:12:29;0.10;;;0.10;;
66478;SDS011;53294;47.912;13.526;2023-11-19T14:14:56;0.17;;;0.08;;
66478;SDS011;53294;47.912;13.526;2023-11-19T14:17:22;0.20;;;0.10;;
66478;SDS011;53294;47.912;13.526;2023-11-19T14:19:51;3.42;;;0.25;;
66478;SDS011;53294;47.912;13.526;2023-11-19T14:22:18;0.43;;;0.15;;
66478;SDS011;53294;47.912;13.526;2023-11-19T14:24:45;0.82;;;0.10;;
66478;SDS011;53294;47.912;13.526;2023-11-19T14:27:11;0.20;;;0.00;;
66478;SDS011;53294;47.912;13.526;2023-11-19T14:29:38;0.20;;;0.10;;
66478;SDS011;53294;47.912;13.526;2023-11-19T14:32:06;1.00;;;0.10;;
66478;SDS011;53294;47.912;13.526;2023-11-19T14:34:33;0.85;;;0.28;;
66478;SDS011;53294;47.912;13.526;2023-11-19T14:37:00;0.47;;;0.10;;
66478;SDS011;53294;47.912;13.526;2023-11-19T14:39:27;0.32;;;0.28;;
66478;SDS011;53294;47.912;13.526;2023-11-19T14:41:55;0.47;;;0.10;;
66478;SDS011;53294;47.912;13.526;2023-11-19T14:44:24;1.00;;;0.30;;
66478;SDS011;53294;47.912;13.526;2023-11-19T14:46:51;0.40;;;0.10;;
66478;SDS011;53294;47.912;13.526;2023-11-19T14:49:18;0.22;;;0.10;;
66478;SDS011;53294;47.912;13.526;2023-11-19T14:51:44;0.32;;;0.00;;
66478;SDS011;53294;47.912;13.526;2023-11-19T14:54:14;0.10;;;0.10;;
66478;SDS011;53294;47.912;13.526;2023-11-19T14:56:42;0.60;;;0.17;;
66478;SDS011;53294;47.912;13.526;2023-11-19T14:59:09;0.28;;;0.10;;
66478;SDS011;53294;47.912;13.526;2023-11-19T15:01:35;0.22;;;0.03;;
66478;SDS011;53294;47.912;13.526;2023-11-19T15:04:02;0.60;;;0.22;;
66478;SDS011;53294;47.912;13.526;2023-11-19T15:06:32;1.67;;;0.20;;
66478;SDS011;53294;47.912;13.526;2023-11-19T15:09:00;0.60;;;0.10;;
66478;SDS011;53294;47.912;13.526;2023-11-19T15:13:54;1.15;;;0.13;;
66478;SDS011;53294;47.912;13.526;2023-11-19T15:16:20;2.90;;;0.30;;
66478;SDS011;53294;47.912;13.526;2023-11-19T15:18:57;1.17;;;0.20;;